DCU weather

Pryor Field Regional Airport
Decatur, Alabama, United States

Public forecast

Using degrees Fahrenheit for public forecast. Weather courtesy of forecast.io.

Current aviation weather report (METAR) for Pryor Field Regional Airport

Retrieved 2020/02/21 23:53 UTC (51 minutes ago):

KDCU 212353Z AUTO 02005KT 10SM CLR 03/M07 A3054 RMK AO2 SLP346 T00331067 10061 20022 53001

Closest aviation forecast (TAF) to Pryor Field Regional Airport

Closest forecast is Huntsville International Carl T Jones Field, 8.5 nm (15.7 km) E. Retrieved 2020-02-22 00:33 UTC (11 minutes ago):

TAF KHSV 212330Z 2200/2224 36005KT P6SM SKC FM220400 VRB03KT P6SM SKC FM221800 21005KT P6SM SKC